Hauptseite
METAR-TAF:

METAR-TAF

Flughäfen :

Fliegerhorst Büchel

Büchel, Deutschland

Breite: 50-10N, Länge: 007-04E, Höhe: 478 m

Beobachtung

Neuester Wetterbericht von vor 28 Minuten, um 02:20 UTC
Wind 1 kt aus unterschiedlichen Richtungen
Temperatur 15°C
Luftfeuchtigkeit 67%
Luftdruck 1019 hPa
Sichtweite 10 km oder mehr

METAR: ETSB 180220Z AUTO VRB01KT 9999 // ////// 15/09 Q1019 ///

Zeit: 04:48 (02:48 UTC)

Prognose

Neuester Wetterbericht von vor 10 Stunden und 38 Minuten, um 16:10 UTC
Gültige Prognose vom 17 um 16 UTC bis 17 um 23 UTC
Wind 8 kt aus West/Nordwest
Sichtweite: 1620 m
Leicht bewölkt in der Höhe von 5000 ft
Durchbrochene Bewölkung in der Höhe von 25000 ft

TAF: ETSB 171610Z 1716/1723 29008KT 9999 NSW FEW050 BKN250 CANCEL 1620 BY ETGL

Wetterbeobachtungen und Prognosen von mehr als 4000 Flughäfen (METAR und TAF Bericht).

Die verfügbaren Stationen werden durch gelbe und rote Markierungen auf der Karte dargestellt.

Führen Sie die Maus auf sie, um den Namen der Station zu sehen.

Darauf klicken, um die Beobachtung von Wetterbeobachtungen und Prognosen zu sehen.

Um die Karte zu ändern : klicken Sie auf den grünen Tasten mit einem schwarzen Kreuz Zum Vergrößern, auf den grünen Button mit einem Gedankenstrich zu verkleinern, oder auf die grünen Pfeile für benachbarte Karten.


METAR-TAF: